マンチェスター の空港の天気 - METARとTAF

マンチェスター空港 ( EGCC / MAN ) - イギリス マンチェスター
飛行場実況気象(Metar)
観測時間12/06 20:20 GMT (12/06 20:20 UTC)
風向・風速西 6m/s
視程10km以上
天気現象
全天の4割程度の雲 雲底高度 430m
全天の8割程度の雲 雲底高度 1010m
気温9℃
湿度87%
気圧1004hPa
METAREGCC 062020Z 27011KT 9999 SCT014 BKN033 09/07 Q1004
過去の天気等 Google飛行場航空写真 Wunderground天気予報

過去48時間のMETAR

飛行場予報(TAF)
発表時間: 12/06 18:54 GMT (12/06 18:54 UTC)
予報対象時間: 6日18時 GMT ~ 8日0時 GMT
風向・風速西 5m/s
視程10km以上
全天の8割程度の雲 雲底高度 610m
6日18時 GMT ~ 6日21時 GMT に 確率 30% で一時的に
風向・風速西 8m/s 瞬間風速 13m/s
視程5000m
天気現象
全天の8割程度の雲 雲底高度 270m
7日8時 GMT ~ 7日11時 GMT に徐々に
風向・風速南南西 5m/s
7日8時 GMT ~ 7日22時 GMT に 確率 30% で一時的に
全天の8割程度の雲 雲底高度 370m
7日20時 GMT ~ 7日23時 GMT に徐々に
風向・風速南 8m/s 瞬間風速 13m/s
7日22時 GMT ~ 7日24時 GMT に一時的に
視程7000m
天気現象
全天の8割程度の雲 雲底高度 430m
TAF AMD EGCC 061854Z 0618/0724 28010KT 9999 BKN020
PROB30 TEMPO 0618/0621 27015G25KT 5000 RA BKN009
BECMG 0708/0711 21009KT
PROB30 TEMPO 0708/0722 BKN012
BECMG 0720/0723 19015G25KT
TEMPO 0722/0724 7000 RA BKN014